sensor_id;sensor_type;location;lat;lon;timestamp;temperature;humidity
69436;SHT31;56625;54.322;18.582;2023-06-26T00:00:49;15.42;80.58
69436;SHT31;56625;54.322;18.582;2023-06-26T00:03:36;15.36;80.91
69436;SHT31;56625;54.322;18.582;2023-06-26T00:06:03;15.31;80.91
69436;SHT31;56625;54.322;18.582;2023-06-26T00:08:30;15.27;80.99
69436;SHT31;56625;54.322;18.582;2023-06-26T00:10:56;15.23;80.97
69436;SHT31;56625;54.322;18.582;2023-06-26T00:13:23;15.20;81.04
69436;SHT31;56625;54.322;18.582;2023-06-26T00:15:50;15.17;81.05
69436;SHT31;56625;54.322;18.582;2023-06-26T00:18:17;15.11;80.95
69436;SHT31;56625;54.322;18.582;2023-06-26T00:20:44;15.06;80.92
69436;SHT31;56625;54.322;18.582;2023-06-26T00:23:11;15.02;80.94
69436;SHT31;56625;54.322;18.582;2023-06-26T00:25:43;14.96;80.92
69436;SHT31;56625;54.322;18.582;2023-06-26T00:28:10;14.92;80.84
69436;SHT31;56625;54.322;18.582;2023-06-26T00:30:37;14.88;80.94
69436;SHT31;56625;54.322;18.582;2023-06-26T00:33:04;14.86;81.25
69436;SHT31;56625;54.322;18.582;2023-06-26T00:35:32;14.83;81.24
69436;SHT31;56625;54.322;18.582;2023-06-26T00:37:58;14.82;81.38
69436;SHT31;56625;54.322;18.582;2023-06-26T00:40:25;14.79;81.39
69436;SHT31;56625;54.322;18.582;2023-06-26T00:42:53;14.80;81.65
69436;SHT31;56625;54.322;18.582;2023-06-26T00:45:20;14.79;81.69
69436;SHT31;56625;54.322;18.582;2023-06-26T00:48:04;14.80;81.59
69436;SHT31;56625;54.322;18.582;2023-06-26T00:50:32;14.78;81.43
69436;SHT31;56625;54.322;18.582;2023-06-26T00:53:00;14.79;81.36
69436;SHT31;56625;54.322;18.582;2023-06-26T00:55:27;14.79;81.23
69436;SHT31;56625;54.322;18.582;2023-06-26T00:57:55;14.77;81.17
69436;SHT31;56625;54.322;18.582;2023-06-26T01:00:22;14.75;81.06
69436;SHT31;56625;54.322;18.582;2023-06-26T01:02:49;14.72;80.93
69436;SHT31;56625;54.322;18.582;2023-06-26T01:05:16;14.71;80.79
69436;SHT31;56625;54.322;18.582;2023-06-26T01:07:49;14.71;80.65
69436;SHT31;56625;54.322;18.582;2023-06-26T01:10:18;14.70;80.63
69436;SHT31;56625;54.322;18.582;2023-06-26T01:12:45;14.69;80.90
69436;SHT31;56625;54.322;18.582;2023-06-26T01:15:12;14.69;81.36
69436;SHT31;56625;54.322;18.582;2023-06-26T01:17:39;14.70;81.70
69436;SHT31;56625;54.322;18.582;2023-06-26T01:20:11;14.70;81.80
69436;SHT31;56625;54.322;18.582;2023-06-26T01:22:50;14.69;81.76
69436;SHT31;56625;54.322;18.582;2023-06-26T01:25:38;14.65;81.77
69436;SHT31;56625;54.322;18.582;2023-06-26T01:28:25;14.62;81.66
69436;SHT31;56625;54.322;18.582;2023-06-26T01:30:54;14.60;81.65
69436;SHT31;56625;54.322;18.582;2023-06-26T01:33:22;14.58;81.61
69436;SHT31;56625;54.322;18.582;2023-06-26T01:35:48;14.56;81.54
69436;SHT31;56625;54.322;18.582;2023-06-26T01:38:17;14.53;81.51
69436;SHT31;56625;54.322;18.582;2023-06-26T01:40:46;14.48;81.43
69436;SHT31;56625;54.322;18.582;2023-06-26T01:51:30;14.35;81.93
69436;SHT31;56625;54.322;18.582;2023-06-26T01:54:09;14.28;82.18
69436;SHT31;56625;54.322;18.582;2023-06-26T01:56:42;14.22;82.05
69436;SHT31;56625;54.322;18.582;2023-06-26T01:59:12;14.18;82.09
69436;SHT31;56625;54.322;18.582;2023-06-26T02:01:40;14.17;82.28
69436;SHT31;56625;54.322;18.582;2023-06-26T02:04:07;14.18;82.42
69436;SHT31;56625;54.322;18.582;2023-06-26T02:06:33;14.19;82.49
69436;SHT31;56625;54.322;18.582;2023-06-26T02:08:59;14.20;82.49
69436;SHT31;56625;54.322;18.582;2023-06-26T02:11:26;14.22;82.47
69436;SHT31;56625;54.322;18.582;2023-06-26T02:13:53;14.23;82.38
69436;SHT31;56625;54.322;18.582;2023-06-26T02:16:19;14.24;82.39
69436;SHT31;56625;54.322;18.582;2023-06-26T02:18:46;14.23;82.56
69436;SHT31;56625;54.322;18.582;2023-06-26T02:21:13;14.24;82.63
69436;SHT31;56625;54.322;18.582;2023-06-26T02:23:39;14.24;82.65
69436;SHT31;56625;54.322;18.582;2023-06-26T02:26:06;14.23;82.51
69436;SHT31;56625;54.322;18.582;2023-06-26T02:28:33;14.20;82.44
69436;SHT31;56625;54.322;18.582;2023-06-26T02:31:00;14.21;82.60
69436;SHT31;56625;54.322;18.582;2023-06-26T02:33:27;14.23;82.80
69436;SHT31;56625;54.322;18.582;2023-06-26T02:35:54;14.26;83.10
69436;SHT31;56625;54.322;18.582;2023-06-26T02:38:21;14.26;83.15
69436;SHT31;56625;54.322;18.582;2023-06-26T02:40:47;14.28;83.43
69436;SHT31;56625;54.322;18.582;2023-06-26T02:43:14;14.28;83.78
69436;SHT31;56625;54.322;18.582;2023-06-26T02:45:41;14.29;83.96
69436;SHT31;56625;54.322;18.582;2023-06-26T02:48:07;14.31;83.96
69436;SHT31;56625;54.322;18.582;2023-06-26T02:50:34;14.33;83.73
69436;SHT31;56625;54.322;18.582;2023-06-26T02:53:00;14.35;83.49
69436;SHT31;56625;54.322;18.582;2023-06-26T02:55:28;14.53;83.40
69436;SHT31;56625;54.322;18.582;2023-06-26T02:57:56;14.89;82.82
69436;SHT31;56625;54.322;18.582;2023-06-26T03:00:23;15.26;81.75
69436;SHT31;56625;54.322;18.582;2023-06-26T03:02:56;15.53;80.59
69436;SHT31;56625;54.322;18.582;2023-06-26T03:05:23;15.82;80.09
69436;SHT31;56625;54.322;18.582;2023-06-26T03:07:50;16.07;79.24
69436;SHT31;56625;54.322;18.582;2023-06-26T03:10:17;16.24;78.51
69436;SHT31;56625;54.322;18.582;2023-06-26T03:12:43;16.41;77.77
69436;SHT31;56625;54.322;18.582;2023-06-26T03:15:10;16.57;77.03
69436;SHT31;56625;54.322;18.582;2023-06-26T03:17:37;16.73;76.60
69436;SHT31;56625;54.322;18.582;2023-06-26T03:20:04;16.88;75.93
69436;SHT31;56625;54.322;18.582;2023-06-26T03:22:33;17.02;75.43
69436;SHT31;56625;54.322;18.582;2023-06-26T03:25:01;17.22;74.90
69436;SHT31;56625;54.322;18.582;2023-06-26T03:27:29;17.53;74.20
69436;SHT31;56625;54.322;18.582;2023-06-26T03:29:55;17.90;72.99
69436;SHT31;56625;54.322;18.582;2023-06-26T03:32:22;18.19;71.80
69436;SHT31;56625;54.322;18.582;2023-06-26T03:34:49;18.46;70.72
69436;SHT31;56625;54.322;18.582;2023-06-26T03:37:15;18.64;69.72
69436;SHT31;56625;54.322;18.582;2023-06-26T03:39:42;18.78;69.01
69436;SHT31;56625;54.322;18.582;2023-06-26T03:42:08;18.91;68.74
69436;SHT31;56625;54.322;18.582;2023-06-26T03:44:35;19.04;68.19
69436;SHT31;56625;54.322;18.582;2023-06-26T03:47:02;19.19;67.73
69436;SHT31;56625;54.322;18.582;2023-06-26T03:49:29;19.30;67.09
69436;SHT31;56625;54.322;18.582;2023-06-26T03:51:56;19.38;66.67
69436;SHT31;56625;54.322;18.582;2023-06-26T03:54:22;19.49;66.58
69436;SHT31;56625;54.322;18.582;2023-06-26T03:56:49;19.61;66.15
69436;SHT31;56625;54.322;18.582;2023-06-26T03:59:16;19.77;65.85
69436;SHT31;56625;54.322;18.582;2023-06-26T04:01:43;19.99;65.62
69436;SHT31;56625;54.322;18.582;2023-06-26T04:04:10;20.19;64.98
69436;SHT31;56625;54.322;18.582;2023-06-26T04:06:37;20.40;64.54
69436;SHT31;56625;54.322;18.582;2023-06-26T04:09:04;20.69;64.33
69436;SHT31;56625;54.322;18.582;2023-06-26T04:11:30;20.92;62.77
69436;SHT31;56625;54.322;18.582;2023-06-26T04:13:57;20.93;62.24
69436;SHT31;56625;54.322;18.582;2023-06-26T04:16:24;20.90;62.06
69436;SHT31;56625;54.322;18.582;2023-06-26T04:18:52;20.88;61.99
69436;SHT31;56625;54.322;18.582;2023-06-26T04:21:19;20.87;61.94
69436;SHT31;56625;54.322;18.582;2023-06-26T04:23:46;20.85;61.80
69436;SHT31;56625;54.322;18.582;2023-06-26T04:26:14;20.81;61.81
69436;SHT31;56625;54.322;18.582;2023-06-26T04:28:41;20.77;61.68
69436;SHT31;56625;54.322;18.582;2023-06-26T04:31:08;20.76;61.82
69436;SHT31;56625;54.322;18.582;2023-06-26T04:33:36;20.83;61.66
69436;SHT31;56625;54.322;18.582;2023-06-26T04:36:07;20.94;61.35
69436;SHT31;56625;54.322;18.582;2023-06-26T04:38:34;21.04;61.03
69436;SHT31;56625;54.322;18.582;2023-06-26T04:41:01;21.12;60.76
69436;SHT31;56625;54.322;18.582;2023-06-26T04:43:28;21.18;60.45
69436;SHT31;56625;54.322;18.582;2023-06-26T04:45:55;21.24;60.09
69436;SHT31;56625;54.322;18.582;2023-06-26T04:48:22;21.25;59.80
69436;SHT31;56625;54.322;18.582;2023-06-26T04:50:49;21.29;59.41
69436;SHT31;56625;54.322;18.582;2023-06-26T04:53:20;21.34;59.17
69436;SHT31;56625;54.322;18.582;2023-06-26T04:55:49;21.53;59.09
69436;SHT31;56625;54.322;18.582;2023-06-26T04:58:19;21.77;57.91
69436;SHT31;56625;54.322;18.582;2023-06-26T05:00:46;21.92;57.39
69436;SHT31;56625;54.322;18.582;2023-06-26T05:03:13;22.04;56.52
69436;SHT31;56625;54.322;18.582;2023-06-26T05:05:43;22.15;55.66
69436;SHT31;56625;54.322;18.582;2023-06-26T05:08:17;22.31;55.04
69436;SHT31;56625;54.322;18.582;2023-06-26T05:10:53;22.38;54.70
69436;SHT31;56625;54.322;18.582;2023-06-26T05:13:24;22.35;53.92
69436;SHT31;56625;54.322;18.582;2023-06-26T05:15:52;22.41;54.07
69436;SHT31;56625;54.322;18.582;2023-06-26T05:18:19;22.49;52.54
69436;SHT31;56625;54.322;18.582;2023-06-26T05:20:46;22.63;53.24
69436;SHT31;56625;54.322;18.582;2023-06-26T05:23:13;22.92;52.26
69436;SHT31;56625;54.322;18.582;2023-06-26T05:25:42;23.04;50.38
69436;SHT31;56625;54.322;18.582;2023-06-26T05:28:09;23.00;49.58
69436;SHT31;56625;54.322;18.582;2023-06-26T05:30:38;23.01;48.72
69436;SHT31;56625;54.322;18.582;2023-06-26T05:33:05;23.08;48.19
69436;SHT31;56625;54.322;18.582;2023-06-26T05:35:34;23.18;47.85
69436;SHT31;56625;54.322;18.582;2023-06-26T05:38:03;23.35;47.41
69436;SHT31;56625;54.322;18.582;2023-06-26T05:40:30;23.46;47.14
69436;SHT31;56625;54.322;18.582;2023-06-26T05:42:57;23.63;47.86
69436;SHT31;56625;54.322;18.582;2023-06-26T05:45:24;23.98;47.46
69436;SHT31;56625;54.322;18.582;2023-06-26T05:47:50;24.25;46.74
69436;SHT31;56625;54.322;18.582;2023-06-26T05:50:17;24.46;46.24
69436;SHT31;56625;54.322;18.582;2023-06-26T05:52:46;24.66;46.38
69436;SHT31;56625;54.322;18.582;2023-06-26T05:55:13;24.87;46.28
69436;SHT31;56625;54.322;18.582;2023-06-26T05:57:40;25.10;44.50
69436;SHT31;56625;54.322;18.582;2023-06-26T06:00:08;25.27;44.11
69436;SHT31;56625;54.322;18.582;2023-06-26T06:02:37;25.39;44.06
69436;SHT31;56625;54.322;18.582;2023-06-26T06:05:05;25.47;42.66
69436;SHT31;56625;54.322;18.582;2023-06-26T06:07:32;25.51;42.22
69436;SHT31;56625;54.322;18.582;2023-06-26T06:10:02;25.60;42.13
69436;SHT31;56625;54.322;18.582;2023-06-26T06:12:30;25.72;43.47
69436;SHT31;56625;54.322;18.582;2023-06-26T06:14:56;25.94;42.71
69436;SHT31;56625;54.322;18.582;2023-06-26T06:17:23;26.15;41.85
69436;SHT31;56625;54.322;18.582;2023-06-26T06:19:50;26.27;40.84
69436;SHT31;56625;54.322;18.582;2023-06-26T06:22:17;26.36;41.32
69436;SHT31;56625;54.322;18.582;2023-06-26T06:24:43;26.33;39.18
69436;SHT31;56625;54.322;18.582;2023-06-26T06:27:10;26.17;39.24
69436;SHT31;56625;54.322;18.582;2023-06-26T06:29:37;26.06;39.60
69436;SHT31;56625;54.322;18.582;2023-06-26T06:32:04;26.04;40.52
69436;SHT31;56625;54.322;18.582;2023-06-26T06:34:31;26.12;40.04
69436;SHT31;56625;54.322;18.582;2023-06-26T06:36:57;26.15;39.59
69436;SHT31;56625;54.322;18.582;2023-06-26T06:39:24;26.12;39.38
69436;SHT31;56625;54.322;18.582;2023-06-26T06:41:51;26.08;39.85
69436;SHT31;56625;54.322;18.582;2023-06-26T06:44:17;25.97;39.98
69436;SHT31;56625;54.322;18.582;2023-06-26T06:46:44;25.94;40.70
69436;SHT31;56625;54.322;18.582;2023-06-26T06:49:11;26.02;41.09
69436;SHT31;56625;54.322;18.582;2023-06-26T06:51:37;25.98;40.99
69436;SHT31;56625;54.322;18.582;2023-06-26T06:54:04;25.90;41.74
69436;SHT31;56625;54.322;18.582;2023-06-26T06:56:31;25.87;41.65
69436;SHT31;56625;54.322;18.582;2023-06-26T06:58:57;25.79;42.10
69436;SHT31;56625;54.322;18.582;2023-06-26T07:01:24;25.72;42.20
69436;SHT31;56625;54.322;18.582;2023-06-26T07:03:51;25.64;42.43
69436;SHT31;56625;54.322;18.582;2023-06-26T07:06:18;25.52;43.09
69436;SHT31;56625;54.322;18.582;2023-06-26T07:08:45;25.52;43.51
69436;SHT31;56625;54.322;18.582;2023-06-26T07:11:11;25.54;43.83
69436;SHT31;56625;54.322;18.582;2023-06-26T07:13:38;25.54;43.61
69436;SHT31;56625;54.322;18.582;2023-06-26T07:16:04;25.60;43.56
69436;SHT31;56625;54.322;18.582;2023-06-26T07:18:35;25.60;44.83
69436;SHT31;56625;54.322;18.582;2023-06-26T07:21:05;25.56;46.17
69436;SHT31;56625;54.322;18.582;2023-06-26T07:23:31;25.57;46.04
69436;SHT31;56625;54.322;18.582;2023-06-26T07:25:58;25.55;45.96
69436;SHT31;56625;54.322;18.582;2023-06-26T07:28:25;25.55;45.46
69436;SHT31;56625;54.322;18.582;2023-06-26T07:30:52;25.47;46.89
69436;SHT31;56625;54.322;18.582;2023-06-26T07:33:19;25.39;48.36
69436;SHT31;56625;54.322;18.582;2023-06-26T07:35:47;25.36;48.75
69436;SHT31;56625;54.322;18.582;2023-06-26T07:38:14;25.40;48.75
69436;SHT31;56625;54.322;18.582;2023-06-26T07:40:41;25.49;48.66
69436;SHT31;56625;54.322;18.582;2023-06-26T07:43:07;25.50;48.13
69436;SHT31;56625;54.322;18.582;2023-06-26T07:45:34;25.54;47.89
69436;SHT31;56625;54.322;18.582;2023-06-26T07:48:00;25.67;48.43
69436;SHT31;56625;54.322;18.582;2023-06-26T07:50:27;25.81;48.59
69436;SHT31;56625;54.322;18.582;2023-06-26T07:52:54;25.89;48.22
69436;SHT31;56625;54.322;18.582;2023-06-26T07:55:25;25.96;47.62
69436;SHT31;56625;54.322;18.582;2023-06-26T07:57:53;26.03;47.35
69436;SHT31;56625;54.322;18.582;2023-06-26T08:00:21;26.19;47.46
69436;SHT31;56625;54.322;18.582;2023-06-26T08:02:48;26.36;47.26
69436;SHT31;56625;54.322;18.582;2023-06-26T08:05:15;26.45;46.69
69436;SHT31;56625;54.322;18.582;2023-06-26T08:07:42;26.40;46.12
69436;SHT31;56625;54.322;18.582;2023-06-26T08:10:09;26.28;46.05
69436;SHT31;56625;54.322;18.582;2023-06-26T08:12:39;26.31;46.14
69436;SHT31;56625;54.322;18.582;2023-06-26T08:15:14;26.40;46.53
69436;SHT31;56625;54.322;18.582;2023-06-26T08:17:41;26.40;46.49
69436;SHT31;56625;54.322;18.582;2023-06-26T08:20:08;26.38;46.04
69436;SHT31;56625;54.322;18.582;2023-06-26T08:22:35;26.33;45.77
69436;SHT31;56625;54.322;18.582;2023-06-26T08:25:02;26.32;45.57
69436;SHT31;56625;54.322;18.582;2023-06-26T08:27:31;26.33;45.36
69436;SHT31;56625;54.322;18.582;2023-06-26T08:29:59;26.40;45.49
69436;SHT31;56625;54.322;18.582;2023-06-26T08:32:25;26.42;44.95
69436;SHT31;56625;54.322;18.582;2023-06-26T08:34:52;26.44;44.98
69436;SHT31;56625;54.322;18.582;2023-06-26T08:37:19;26.50;44.61
69436;SHT31;56625;54.322;18.582;2023-06-26T08:39:46;26.56;43.88
69436;SHT31;56625;54.322;18.582;2023-06-26T08:42:12;26.62;43.59
69436;SHT31;56625;54.322;18.582;2023-06-26T08:44:39;26.70;43.74
69436;SHT31;56625;54.322;18.582;2023-06-26T08:47:25;26.99;43.81
69436;SHT31;56625;54.322;18.582;2023-06-26T08:50:13;27.25;43.21
69436;SHT31;56625;54.322;18.582;2023-06-26T08:55:27;27.58;42.60
69436;SHT31;56625;54.322;18.582;2023-06-26T08:57:55;27.80;41.89
69436;SHT31;56625;54.322;18.582;2023-06-26T09:00:22;28.00;41.39
69436;SHT31;56625;54.322;18.582;2023-06-26T09:02:49;28.18;40.74
69436;SHT31;56625;54.322;18.582;2023-06-26T09:05:17;28.25;40.18
69436;SHT31;56625;54.322;18.582;2023-06-26T09:07:43;28.26;40.00
69436;SHT31;56625;54.322;18.582;2023-06-26T09:10:11;28.36;38.70
69436;SHT31;56625;54.322;18.582;2023-06-26T09:12:38;28.49;38.63
69436;SHT31;56625;54.322;18.582;2023-06-26T09:15:05;28.43;36.37
69436;SHT31;56625;54.322;18.582;2023-06-26T09:17:34;28.10;36.98
69436;SHT31;56625;54.322;18.582;2023-06-26T09:20:09;27.99;37.54
69436;SHT31;56625;54.322;18.582;2023-06-26T09:22:36;27.99;37.65
69436;SHT31;56625;54.322;18.582;2023-06-26T09:25:06;28.12;38.12
69436;SHT31;56625;54.322;18.582;2023-06-26T09:27:35;28.22;37.15
69436;SHT31;56625;54.322;18.582;2023-06-26T09:30:02;28.23;37.16
69436;SHT31;56625;54.322;18.582;2023-06-26T09:32:30;28.28;37.15
69436;SHT31;56625;54.322;18.582;2023-06-26T09:34:57;28.31;36.96
69436;SHT31;56625;54.322;18.582;2023-06-26T09:37:26;28.38;37.00
69436;SHT31;56625;54.322;18.582;2023-06-26T09:39:53;28.45;36.77
69436;SHT31;56625;54.322;18.582;2023-06-26T09:42:20;28.50;37.05
69436;SHT31;56625;54.322;18.582;2023-06-26T09:44:48;28.55;36.33
69436;SHT31;56625;54.322;18.582;2023-06-26T09:47:18;28.48;36.73
69436;SHT31;56625;54.322;18.582;2023-06-26T09:49:45;28.57;36.96
69436;SHT31;56625;54.322;18.582;2023-06-26T09:52:14;28.67;36.32
69436;SHT31;56625;54.322;18.582;2023-06-26T09:54:42;28.64;35.81
69436;SHT31;56625;54.322;18.582;2023-06-26T09:57:13;28.51;35.89
69436;SHT31;56625;54.322;18.582;2023-06-26T09:59:44;28.39;35.90
69436;SHT31;56625;54.322;18.582;2023-06-26T10:02:11;28.38;36.11
69436;SHT31;56625;54.322;18.582;2023-06-26T10:04:38;28.38;35.75
69436;SHT31;56625;54.322;18.582;2023-06-26T10:07:06;28.34;35.97
69436;SHT31;56625;54.322;18.582;2023-06-26T10:09:42;28.32;35.70
69436;SHT31;56625;54.322;18.582;2023-06-26T10:12:27;28.34;35.66
69436;SHT31;56625;54.322;18.582;2023-06-26T10:14:57;28.35;35.34
69436;SHT31;56625;54.322;18.582;2023-06-26T10:17:30;28.35;35.56
69436;SHT31;56625;54.322;18.582;2023-06-26T10:20:02;28.47;35.53
69436;SHT31;56625;54.322;18.582;2023-06-26T10:22:37;28.60;35.01
69436;SHT31;56625;54.322;18.582;2023-06-26T10:25:10;28.59;35.13
69436;SHT31;56625;54.322;18.582;2023-06-26T10:27:45;28.67;35.32
69436;SHT31;56625;54.322;18.582;2023-06-26T10:30:20;28.72;34.93
69436;SHT31;56625;54.322;18.582;2023-06-26T10:32:54;28.74;35.03
69436;SHT31;56625;54.322;18.582;2023-06-26T10:35:23;28.77;34.88
69436;SHT31;56625;54.322;18.582;2023-06-26T10:37:51;28.73;34.79
69436;SHT31;56625;54.322;18.582;2023-06-26T10:40:21;28.69;34.65
69436;SHT31;56625;54.322;18.582;2023-06-26T10:42:51;28.57;34.69
69436;SHT31;56625;54.322;18.582;2023-06-26T10:45:36;28.57;34.86
69436;SHT31;56625;54.322;18.582;2023-06-26T10:48:12;28.59;34.42
69436;SHT31;56625;54.322;18.582;2023-06-26T10:50:41;28.50;34.39
69436;SHT31;56625;54.322;18.582;2023-06-26T10:53:15;28.50;34.72
69436;SHT31;56625;54.322;18.582;2023-06-26T10:55:54;28.56;34.39
69436;SHT31;56625;54.322;18.582;2023-06-26T10:58:39;28.55;34.59
69436;SHT31;56625;54.322;18.582;2023-06-26T11:03:55;28.58;34.03
69436;SHT31;56625;54.322;18.582;2023-06-26T11:06:28;28.66;34.27
69436;SHT31;56625;54.322;18.582;2023-06-26T11:14:20;29.16;33.47
69436;SHT31;56625;54.322;18.582;2023-06-26T11:16:55;29.26;33.06
69436;SHT31;56625;54.322;18.582;2023-06-26T11:19:25;29.30;32.85
69436;SHT31;56625;54.322;18.582;2023-06-26T11:22:04;29.28;32.66
69436;SHT31;56625;54.322;18.582;2023-06-26T11:24:31;29.33;33.04
69436;SHT31;56625;54.322;18.582;2023-06-26T11:27:00;29.43;32.14
69436;SHT31;56625;54.322;18.582;2023-06-26T11:29:29;29.41;32.32
69436;SHT31;56625;54.322;18.582;2023-06-26T11:32:00;29.45;31.97
69436;SHT31;56625;54.322;18.582;2023-06-26T11:34:31;29.40;31.99
69436;SHT31;56625;54.322;18.582;2023-06-26T11:36:59;29.34;31.67
69436;SHT31;56625;54.322;18.582;2023-06-26T11:39:27;29.16;31.55
69436;SHT31;56625;54.322;18.582;2023-06-26T11:41:54;29.16;32.18
69436;SHT31;56625;54.322;18.582;2023-06-26T11:44:21;29.27;32.06
69436;SHT31;56625;54.322;18.582;2023-06-26T11:46:51;29.32;31.78
69436;SHT31;56625;54.322;18.582;2023-06-26T11:49:20;29.32;32.03
69436;SHT31;56625;54.322;18.582;2023-06-26T11:51:49;29.38;31.62
69436;SHT31;56625;54.322;18.582;2023-06-26T11:54:16;29.45;31.62
69436;SHT31;56625;54.322;18.582;2023-06-26T11:56:52;29.45;31.08
69436;SHT31;56625;54.322;18.582;2023-06-26T11:59:22;29.42;31.04
69436;SHT31;56625;54.322;18.582;2023-06-26T12:01:50;29.35;31.07
69436;SHT31;56625;54.322;18.582;2023-06-26T12:04:18;29.40;31.66
69436;SHT31;56625;54.322;18.582;2023-06-26T12:06:47;29.48;31.21
69436;SHT31;56625;54.322;18.582;2023-06-26T12:09:23;29.51;30.99
69436;SHT31;56625;54.322;18.582;2023-06-26T12:11:53;29.51;31.33
69436;SHT31;56625;54.322;18.582;2023-06-26T12:14:22;29.67;31.14
69436;SHT31;56625;54.322;18.582;2023-06-26T12:16:52;29.78;30.90
69436;SHT31;56625;54.322;18.582;2023-06-26T12:19:23;29.82;30.80
69436;SHT31;56625;54.322;18.582;2023-06-26T12:21:53;29.84;30.61
69436;SHT31;56625;54.322;18.582;2023-06-26T12:24:22;29.80;30.56
69436;SHT31;56625;54.322;18.582;2023-06-26T12:26:51;29.84;30.58
69436;SHT31;56625;54.322;18.582;2023-06-26T12:29:29;29.88;30.19
69436;SHT31;56625;54.322;18.582;2023-06-26T12:32:00;29.87;29.80
69436;SHT31;56625;54.322;18.582;2023-06-26T12:34:28;29.87;30.42
69436;SHT31;56625;54.322;18.582;2023-06-26T12:37:04;29.76;30.18
69436;SHT31;56625;54.322;18.582;2023-06-26T12:39:54;29.72;30.54
69436;SHT31;56625;54.322;18.582;2023-06-26T12:42:24;29.82;30.55
69436;SHT31;56625;54.322;18.582;2023-06-26T12:44:53;29.92;30.35
69436;SHT31;56625;54.322;18.582;2023-06-26T12:47:26;29.86;30.63
69436;SHT31;56625;54.322;18.582;2023-06-26T12:49:55;29.83;30.41
69436;SHT31;56625;54.322;18.582;2023-06-26T12:52:23;29.77;30.54
69436;SHT31;56625;54.322;18.582;2023-06-26T12:54:53;29.74;30.13
69436;SHT31;56625;54.322;18.582;2023-06-26T12:57:22;29.79;30.16
69436;SHT31;56625;54.322;18.582;2023-06-26T12:59:49;29.95;29.84
69436;SHT31;56625;54.322;18.582;2023-06-26T13:02:15;29.89;30.04
69436;SHT31;56625;54.322;18.582;2023-06-26T13:04:44;29.80;30.14
69436;SHT31;56625;54.322;18.582;2023-06-26T13:07:11;29.68;30.33
69436;SHT31;56625;54.322;18.582;2023-06-26T13:09:38;29.68;30.48
69436;SHT31;56625;54.322;18.582;2023-06-26T13:12:05;29.54;30.55
69436;SHT31;56625;54.322;18.582;2023-06-26T13:14:34;29.36;30.96
69436;SHT31;56625;54.322;18.582;2023-06-26T13:17:01;29.20;31.49
69436;SHT31;56625;54.322;18.582;2023-06-26T13:19:30;29.08;31.56
69436;SHT31;56625;54.322;18.582;2023-06-26T13:21:57;28.96;32.02
69436;SHT31;56625;54.322;18.582;2023-06-26T13:24:24;29.00;32.08
69436;SHT31;56625;54.322;18.582;2023-06-26T13:26:50;28.91;32.37
69436;SHT31;56625;54.322;18.582;2023-06-26T13:29:18;28.93;31.57
69436;SHT31;56625;54.322;18.582;2023-06-26T13:31:44;28.96;32.03
69436;SHT31;56625;54.322;18.582;2023-06-26T13:34:21;29.00;32.39
69436;SHT31;56625;54.322;18.582;2023-06-26T13:36:55;29.15;32.29
69436;SHT31;56625;54.322;18.582;2023-06-26T13:39:23;29.22;31.77
69436;SHT31;56625;54.322;18.582;2023-06-26T13:41:49;29.20;31.99
69436;SHT31;56625;54.322;18.582;2023-06-26T13:44:16;29.09;32.34
69436;SHT31;56625;54.322;18.582;2023-06-26T13:47:01;28.95;32.78
69436;SHT31;56625;54.322;18.582;2023-06-26T13:49:28;28.87;33.27
69436;SHT31;56625;54.322;18.582;2023-06-26T13:51:55;28.77;33.46
69436;SHT31;56625;54.322;18.582;2023-06-26T13:54:21;28.75;33.65
69436;SHT31;56625;54.322;18.582;2023-06-26T13:56:48;28.66;33.56
69436;SHT31;56625;54.322;18.582;2023-06-26T13:59:15;28.45;33.87
69436;SHT31;56625;54.322;18.582;2023-06-26T14:01:41;28.40;34.11
69436;SHT31;56625;54.322;18.582;2023-06-26T14:04:10;28.40;34.13
69436;SHT31;56625;54.322;18.582;2023-06-26T14:06:36;28.39;34.01
69436;SHT31;56625;54.322;18.582;2023-06-26T14:09:03;28.29;34.39
69436;SHT31;56625;54.322;18.582;2023-06-26T14:11:30;28.21;34.87
69436;SHT31;56625;54.322;18.582;2023-06-26T14:13:58;28.15;34.81
69436;SHT31;56625;54.322;18.582;2023-06-26T14:16:25;28.04;34.95
69436;SHT31;56625;54.322;18.582;2023-06-26T14:18:52;27.97;35.27
69436;SHT31;56625;54.322;18.582;2023-06-26T14:21:18;27.92;35.17
69436;SHT31;56625;54.322;18.582;2023-06-26T14:23:45;27.85;35.12
69436;SHT31;56625;54.322;18.582;2023-06-26T14:26:11;27.79;35.27
69436;SHT31;56625;54.322;18.582;2023-06-26T14:28:38;27.79;35.21
69436;SHT31;56625;54.322;18.582;2023-06-26T14:31:05;27.79;35.30
69436;SHT31;56625;54.322;18.582;2023-06-26T14:33:32;27.90;34.96
69436;SHT31;56625;54.322;18.582;2023-06-26T14:35:58;27.97;34.81
69436;SHT31;56625;54.322;18.582;2023-06-26T14:38:24;27.94;34.62
69436;SHT31;56625;54.322;18.582;2023-06-26T14:40:51;27.90;34.67
69436;SHT31;56625;54.322;18.582;2023-06-26T14:43:18;27.94;34.82
69436;SHT31;56625;54.322;18.582;2023-06-26T14:45:46;27.98;34.53
69436;SHT31;56625;54.322;18.582;2023-06-26T14:48:13;28.00;34.18
69436;SHT31;56625;54.322;18.582;2023-06-26T14:50:40;27.98;34.21
69436;SHT31;56625;54.322;18.582;2023-06-26T14:53:07;27.96;34.06
69436;SHT31;56625;54.322;18.582;2023-06-26T14:55:33;27.91;34.12
69436;SHT31;56625;54.322;18.582;2023-06-26T14:58:00;27.83;34.01
69436;SHT31;56625;54.322;18.582;2023-06-26T15:00:27;27.70;34.20
69436;SHT31;56625;54.322;18.582;2023-06-26T15:02:53;27.56;34.35
69436;SHT31;56625;54.322;18.582;2023-06-26T15:05:24;27.46;34.77
69436;SHT31;56625;54.322;18.582;2023-06-26T15:07:51;27.41;35.08
69436;SHT31;56625;54.322;18.582;2023-06-26T15:10:17;27.44;35.05
69436;SHT31;56625;54.322;18.582;2023-06-26T15:12:44;27.43;35.16
69436;SHT31;56625;54.322;18.582;2023-06-26T15:15:10;27.43;35.31
69436;SHT31;56625;54.322;18.582;2023-06-26T15:17:38;27.46;35.33
69436;SHT31;56625;54.322;18.582;2023-06-26T15:20:05;27.48;35.42
69436;SHT31;56625;54.322;18.582;2023-06-26T15:22:32;27.48;35.45
69436;SHT31;56625;54.322;18.582;2023-06-26T15:24:59;27.42;36.00
69436;SHT31;56625;54.322;18.582;2023-06-26T15:27:29;27.39;36.24
69436;SHT31;56625;54.322;18.582;2023-06-26T15:29:56;27.39;36.43
69436;SHT31;56625;54.322;18.582;2023-06-26T15:32:22;27.49;36.59
69436;SHT31;56625;54.322;18.582;2023-06-26T15:34:49;27.59;36.53
69436;SHT31;56625;54.322;18.582;2023-06-26T15:37:15;27.66;36.19
69436;SHT31;56625;54.322;18.582;2023-06-26T15:39:42;27.68;36.18
69436;SHT31;56625;54.322;18.582;2023-06-26T15:42:09;27.67;35.51